sensor_id;sensor_type;location;lat;lon;timestamp;pressure;altitude;pressure_sealevel;temperature;humidity
46876;BME280;32866;50.160;14.768;2024-01-06T00:02:24;98272.88;;;1.97;100.00
46876;BME280;32866;50.160;14.768;2024-01-06T00:04:51;98243.44;;;1.76;100.00
46876;BME280;32866;50.160;14.768;2024-01-06T00:07:17;98218.53;;;1.61;100.00
46876;BME280;32866;50.160;14.768;2024-01-06T00:09:43;98262.38;;;2.03;100.00
46876;BME280;32866;50.160;14.768;2024-01-06T00:12:09;98258.56;;;2.00;100.00
46876;BME280;32866;50.160;14.768;2024-01-06T00:14:35;98247.34;;;2.02;100.00
46876;BME280;32866;50.160;14.768;2024-01-06T00:17:01;98198.47;;;1.62;100.00
46876;BME280;32866;50.160;14.768;2024-01-06T00:19:27;98222.72;;;1.65;100.00
46876;BME280;32866;50.160;14.768;2024-01-06T00:21:53;98239.56;;;1.77;100.00
46876;BME280;32866;50.160;14.768;2024-01-06T00:24:19;98206.16;;;1.63;100.00
46876;BME280;32866;50.160;14.768;2024-01-06T00:26:45;98215.41;;;1.66;100.00
46876;BME280;32866;50.160;14.768;2024-01-06T00:29:11;98213.00;;;1.72;100.00
46876;BME280;32866;50.160;14.768;2024-01-06T00:31:37;98203.41;;;1.67;100.00
46876;BME280;32866;50.160;14.768;2024-01-06T00:34:03;98198.38;;;1.69;100.00
46876;BME280;32866;50.160;14.768;2024-01-06T00:36:29;98214.84;;;1.78;100.00
46876;BME280;32866;50.160;14.768;2024-01-06T00:38:55;98200.72;;;1.67;100.00
46876;BME280;32866;50.160;14.768;2024-01-06T00:41:21;98203.00;;;1.69;100.00
46876;BME280;32866;50.160;14.768;2024-01-06T00:43:47;98206.56;;;1.62;100.00
46876;BME280;32866;50.160;14.768;2024-01-06T00:46:13;98238.94;;;1.93;100.00
46876;BME280;32866;50.160;14.768;2024-01-06T00:48:39;98250.84;;;1.99;100.00
46876;BME280;32866;50.160;14.768;2024-01-06T00:51:05;98256.75;;;1.90;100.00
46876;BME280;32866;50.160;14.768;2024-01-06T00:53:31;98203.06;;;1.65;100.00
46876;BME280;32866;50.160;14.768;2024-01-06T00:55:57;98255.78;;;2.04;100.00
46876;BME280;32866;50.160;14.768;2024-01-06T00:58:23;98221.63;;;1.63;100.00
46876;BME280;32866;50.160;14.768;2024-01-06T01:00:49;98265.44;;;2.05;100.00
46876;BME280;32866;50.160;14.768;2024-01-06T01:03:15;98239.97;;;1.75;100.00
46876;BME280;32866;50.160;14.768;2024-01-06T01:05:41;98223.06;;;1.71;100.00
46876;BME280;32866;50.160;14.768;2024-01-06T01:08:07;98243.88;;;1.71;100.00
46876;BME280;32866;50.160;14.768;2024-01-06T01:10:33;98271.25;;;2.03;100.00
46876;BME280;32866;50.160;14.768;2024-01-06T01:12:59;98274.31;;;2.06;100.00
46876;BME280;32866;50.160;14.768;2024-01-06T01:15:25;98274.06;;;1.93;100.00
46876;BME280;32866;50.160;14.768;2024-01-06T01:17:51;98285.88;;;2.06;100.00
46876;BME280;32866;50.160;14.768;2024-01-06T01:20:17;98227.63;;;1.74;100.00
46876;BME280;32866;50.160;14.768;2024-01-06T01:22:43;98247.72;;;1.73;100.00
46876;BME280;32866;50.160;14.768;2024-01-06T01:25:09;98276.34;;;1.98;100.00
46876;BME280;32866;50.160;14.768;2024-01-06T01:27:38;98283.78;;;1.90;100.00
46876;BME280;32866;50.160;14.768;2024-01-06T01:30:04;98280.69;;;1.92;100.00
46876;BME280;32866;50.160;14.768;2024-01-06T01:32:31;98272.47;;;1.99;100.00
46876;BME280;32866;50.160;14.768;2024-01-06T01:34:57;98293.56;;;2.08;100.00
46876;BME280;32866;50.160;14.768;2024-01-06T01:37:23;98287.88;;;2.02;100.00
46876;BME280;32866;50.160;14.768;2024-01-06T01:39:49;98294.19;;;1.92;100.00
46876;BME280;32866;50.160;14.768;2024-01-06T01:42:15;98226.22;;;1.62;100.00
46876;BME280;32866;50.160;14.768;2024-01-06T01:44:41;98284.34;;;2.05;100.00
46876;BME280;32866;50.160;14.768;2024-01-06T01:47:07;98214.38;;;1.56;100.00
46876;BME280;32866;50.160;14.768;2024-01-06T01:49:33;98233.22;;;1.60;100.00
46876;BME280;32866;50.160;14.768;2024-01-06T01:51:59;98282.16;;;1.96;100.00
46876;BME280;32866;50.160;14.768;2024-01-06T01:54:26;98256.81;;;1.87;100.00
46876;BME280;32866;50.160;14.768;2024-01-06T01:56:52;98241.69;;;1.62;100.00
46876;BME280;32866;50.160;14.768;2024-01-06T01:59:19;98257.72;;;1.76;100.00
46876;BME280;32866;50.160;14.768;2024-01-06T02:01:45;98273.91;;;2.07;100.00
46876;BME280;32866;50.160;14.768;2024-01-06T02:04:12;98278.84;;;2.12;100.00
46876;BME280;32866;50.160;14.768;2024-01-06T02:06:38;98254.91;;;1.83;100.00
46876;BME280;32866;50.160;14.768;2024-01-06T02:09:04;98224.50;;;1.79;100.00
46876;BME280;32866;50.160;14.768;2024-01-06T02:11:31;98248.66;;;1.90;100.00
46876;BME280;32866;50.160;14.768;2024-01-06T02:13:57;98254.97;;;2.07;100.00
46876;BME280;32866;50.160;14.768;2024-01-06T02:16:23;98283.84;;;2.41;100.00
46876;BME280;32866;50.160;14.768;2024-01-06T02:18:49;98276.88;;;2.44;100.00
46876;BME280;32866;50.160;14.768;2024-01-06T02:21:15;98278.38;;;2.45;100.00
46876;BME280;32866;50.160;14.768;2024-01-06T02:23:41;98269.97;;;2.39;100.00
46876;BME280;32866;50.160;14.768;2024-01-06T02:26:07;98239.56;;;2.04;100.00
46876;BME280;32866;50.160;14.768;2024-01-06T02:28:33;98272.44;;;2.30;100.00
46876;BME280;32866;50.160;14.768;2024-01-06T02:30:59;98269.28;;;2.35;100.00
46876;BME280;32866;50.160;14.768;2024-01-06T02:33:25;98269.28;;;2.35;100.00
46876;BME280;32866;50.160;14.768;2024-01-06T02:35:51;98258.72;;;2.17;100.00
46876;BME280;32866;50.160;14.768;2024-01-06T02:38:17;98275.25;;;2.46;100.00
46876;BME280;32866;50.160;14.768;2024-01-06T02:40:43;98268.34;;;2.45;100.00
46876;BME280;32866;50.160;14.768;2024-01-06T02:43:09;98224.09;;;2.08;100.00
46876;BME280;32866;50.160;14.768;2024-01-06T02:45:35;98268.91;;;2.33;100.00
46876;BME280;32866;50.160;14.768;2024-01-06T02:48:01;98274.06;;;2.23;100.00
46876;BME280;32866;50.160;14.768;2024-01-06T02:50:27;98276.97;;;2.36;100.00
46876;BME280;32866;50.160;14.768;2024-01-06T02:52:53;98275.84;;;2.34;100.00
46876;BME280;32866;50.160;14.768;2024-01-06T02:55:19;98277.84;;;2.30;100.00
46876;BME280;32866;50.160;14.768;2024-01-06T02:57:45;98274.88;;;2.20;100.00
46876;BME280;32866;50.160;14.768;2024-01-06T03:00:11;98265.84;;;2.31;100.00
46876;BME280;32866;50.160;14.768;2024-01-06T03:02:38;98276.19;;;2.36;100.00
46876;BME280;32866;50.160;14.768;2024-01-06T03:05:08;98280.78;;;2.39;100.00
46876;BME280;32866;50.160;14.768;2024-01-06T03:07:34;98265.78;;;2.34;100.00
46876;BME280;32866;50.160;14.768;2024-01-06T03:10:00;98263.88;;;2.35;100.00
46876;BME280;32866;50.160;14.768;2024-01-06T03:12:26;98228.88;;;1.97;100.00
46876;BME280;32866;50.160;14.768;2024-01-06T03:14:52;98269.50;;;2.44;100.00
46876;BME280;32866;50.160;14.768;2024-01-06T03:17:18;98237.50;;;2.15;100.00
46876;BME280;32866;50.160;14.768;2024-01-06T03:19:44;98242.44;;;2.20;100.00
46876;BME280;32866;50.160;14.768;2024-01-06T03:22:10;98275.22;;;2.50;100.00
46876;BME280;32866;50.160;14.768;2024-01-06T03:24:36;98263.91;;;2.31;100.00
46876;BME280;32866;50.160;14.768;2024-01-06T03:27:02;98253.97;;;2.25;100.00
46876;BME280;32866;50.160;14.768;2024-01-06T03:29:28;98272.47;;;2.53;100.00
46876;BME280;32866;50.160;14.768;2024-01-06T03:31:54;98276.00;;;2.50;100.00
46876;BME280;32866;50.160;14.768;2024-01-06T03:34:20;98269.38;;;2.51;100.00
46876;BME280;32866;50.160;14.768;2024-01-06T03:36:46;98274.38;;;2.53;100.00
46876;BME280;32866;50.160;14.768;2024-01-06T03:39:12;98276.69;;;2.54;100.00
46876;BME280;32866;50.160;14.768;2024-01-06T03:41:39;98268.94;;;2.56;100.00
46876;BME280;32866;50.160;14.768;2024-01-06T03:44:05;98219.53;;;2.29;100.00
46876;BME280;32866;50.160;14.768;2024-01-06T03:46:33;98245.91;;;2.45;100.00
46876;BME280;32866;50.160;14.768;2024-01-06T03:48:59;98279.72;;;2.60;100.00
46876;BME280;32866;50.160;14.768;2024-01-06T03:51:25;98237.03;;;2.20;100.00
46876;BME280;32866;50.160;14.768;2024-01-06T03:53:51;98282.56;;;2.49;100.00
46876;BME280;32866;50.160;14.768;2024-01-06T03:56:17;98287.63;;;2.47;100.00
46876;BME280;32866;50.160;14.768;2024-01-06T03:58:44;98287.56;;;2.51;100.00
46876;BME280;32866;50.160;14.768;2024-01-06T04:01:10;98282.97;;;2.48;100.00
46876;BME280;32866;50.160;14.768;2024-01-06T04:03:36;98277.69;;;2.40;100.00
46876;BME280;32866;50.160;14.768;2024-01-06T04:06:02;98281.50;;;2.43;100.00
46876;BME280;32866;50.160;14.768;2024-01-06T04:08:28;98258.19;;;2.26;100.00
46876;BME280;32866;50.160;14.768;2024-01-06T04:10:54;98202.66;;;1.94;100.00
46876;BME280;32866;50.160;14.768;2024-01-06T04:13:20;98269.16;;;2.42;100.00
46876;BME280;32866;50.160;14.768;2024-01-06T04:15:46;98276.88;;;2.44;100.00
46876;BME280;32866;50.160;14.768;2024-01-06T04:18:12;98246.69;;;2.21;100.00
46876;BME280;32866;50.160;14.768;2024-01-06T04:20:38;98227.19;;;2.07;100.00
46876;BME280;32866;50.160;14.768;2024-01-06T04:23:04;98272.16;;;2.48;100.00
46876;BME280;32866;50.160;14.768;2024-01-06T04:25:30;98265.28;;;2.43;100.00
46876;BME280;32866;50.160;14.768;2024-01-06T04:27:57;98274.09;;;2.47;100.00
46876;BME280;32866;50.160;14.768;2024-01-06T04:30:23;98245.53;;;2.19;100.00
46876;BME280;32866;50.160;14.768;2024-01-06T04:32:51;98264.03;;;2.48;100.00
46876;BME280;32866;50.160;14.768;2024-01-06T04:35:17;98270.34;;;2.65;100.00
46876;BME280;32866;50.160;14.768;2024-01-06T04:37:44;98269.53;;;2.68;100.00
46876;BME280;32866;50.160;14.768;2024-01-06T04:40:10;98223.00;;;2.29;100.00
46876;BME280;32866;50.160;14.768;2024-01-06T04:42:36;98211.16;;;2.19;100.00
46876;BME280;32866;50.160;14.768;2024-01-06T04:45:03;98251.31;;;2.48;100.00
46876;BME280;32866;50.160;14.768;2024-01-06T04:47:30;98239.28;;;2.26;100.00
46876;BME280;32866;50.160;14.768;2024-01-06T04:49:56;98268.94;;;2.56;100.00
46876;BME280;32866;50.160;14.768;2024-01-06T04:52:22;98229.28;;;2.22;100.00
46876;BME280;32866;50.160;14.768;2024-01-06T04:54:48;98267.53;;;2.48;100.00
46876;BME280;32866;50.160;14.768;2024-01-06T04:57:14;98250.44;;;2.28;100.00
46876;BME280;32866;50.160;14.768;2024-01-06T04:59:41;98261.66;;;2.26;100.00
46876;BME280;32866;50.160;14.768;2024-01-06T05:02:07;98235.59;;;2.12;100.00
46876;BME280;32866;50.160;14.768;2024-01-06T05:04:33;98272.31;;;2.37;100.00
46876;BME280;32866;50.160;14.768;2024-01-06T05:06:59;98288.31;;;2.51;100.00
46876;BME280;32866;50.160;14.768;2024-01-06T05:09:25;98246.41;;;2.12;100.00
46876;BME280;32866;50.160;14.768;2024-01-06T05:11:51;98297.63;;;2.50;100.00
46876;BME280;32866;50.160;14.768;2024-01-06T05:14:17;98240.94;;;2.16;100.00
46876;BME280;32866;50.160;14.768;2024-01-06T05:16:44;98304.81;;;2.60;100.00
46876;BME280;32866;50.160;14.768;2024-01-06T05:19:10;98247.44;;;2.22;100.00
46876;BME280;32866;50.160;14.768;2024-01-06T05:21:36;98306.81;;;2.56;100.00
46876;BME280;32866;50.160;14.768;2024-01-06T05:24:02;98303.69;;;2.58;100.00
46876;BME280;32866;50.160;14.768;2024-01-06T05:26:28;98258.66;;;2.20;100.00
46876;BME280;32866;50.160;14.768;2024-01-06T05:28:54;98312.22;;;2.56;100.00
46876;BME280;32866;50.160;14.768;2024-01-06T05:31:20;98283.16;;;2.37;100.00
46876;BME280;32866;50.160;14.768;2024-01-06T05:33:46;98296.81;;;2.53;100.00
46876;BME280;32866;50.160;14.768;2024-01-06T05:36:12;98296.00;;;2.56;100.00
46876;BME280;32866;50.160;14.768;2024-01-06T05:38:38;98252.22;;;2.11;100.00
46876;BME280;32866;50.160;14.768;2024-01-06T05:41:04;98300.63;;;2.56;100.00
46876;BME280;32866;50.160;14.768;2024-01-06T05:43:30;98287.13;;;2.29;100.00
46876;BME280;32866;50.160;14.768;2024-01-06T05:45:56;98313.03;;;2.53;100.00
46876;BME280;32866;50.160;14.768;2024-01-06T05:48:22;98321.63;;;2.48;100.00
46876;BME280;32866;50.160;14.768;2024-01-06T05:50:48;98310.94;;;2.37;100.00
46876;BME280;32866;50.160;14.768;2024-01-06T05:53:14;98271.31;;;2.00;100.00
46876;BME280;32866;50.160;14.768;2024-01-06T05:55:44;98322.88;;;2.40;100.00
46876;BME280;32866;50.160;14.768;2024-01-06T05:58:10;98319.00;;;2.41;100.00
46876;BME280;32866;50.160;14.768;2024-01-06T06:00:36;98327.09;;;2.41;100.00
46876;BME280;32866;50.160;14.768;2024-01-06T06:03:02;98289.03;;;2.01;100.00
46876;BME280;32866;50.160;14.768;2024-01-06T06:05:28;98341.03;;;2.39;100.00
46876;BME280;32866;50.160;14.768;2024-01-06T06:07:54;98290.88;;;2.08;100.00
46876;BME280;32866;50.160;14.768;2024-01-06T06:10:20;98346.31;;;2.50;100.00
46876;BME280;32866;50.160;14.768;2024-01-06T06:12:46;98290.47;;;2.09;100.00
46876;BME280;32866;50.160;14.768;2024-01-06T06:15:12;98350.19;;;2.49;100.00
46876;BME280;32866;50.160;14.768;2024-01-06T06:17:39;98347.88;;;2.48;100.00
46876;BME280;32866;50.160;14.768;2024-01-06T06:20:05;98314.09;;;2.05;100.00
46876;BME280;32866;50.160;14.768;2024-01-06T06:22:34;98346.91;;;2.34;100.00
46876;BME280;32866;50.160;14.768;2024-01-06T06:25:00;98306.69;;;2.09;100.00
46876;BME280;32866;50.160;14.768;2024-01-06T06:27:27;98356.44;;;2.42;100.00
46876;BME280;32866;50.160;14.768;2024-01-06T06:29:53;98365.69;;;2.45;100.00
46876;BME280;32866;50.160;14.768;2024-01-06T06:32:19;98367.41;;;2.32;100.00
46876;BME280;32866;50.160;14.768;2024-01-06T06:34:45;98373.69;;;2.52;100.00
46876;BME280;32866;50.160;14.768;2024-01-06T06:37:11;98345.16;;;2.20;100.00
46876;BME280;32866;50.160;14.768;2024-01-06T06:39:37;98387.75;;;2.71;100.00
46876;BME280;32866;50.160;14.768;2024-01-06T06:42:03;98382.34;;;2.71;100.00
46876;BME280;32866;50.160;14.768;2024-01-06T06:44:29;98389.00;;;2.63;100.00
46876;BME280;32866;50.160;14.768;2024-01-06T06:46:56;98387.13;;;2.59;100.00
46876;BME280;32866;50.160;14.768;2024-01-06T06:49:22;98389.47;;;2.57;100.00
46876;BME280;32866;50.160;14.768;2024-01-06T06:51:48;98396.44;;;2.58;100.00
46876;BME280;32866;50.160;14.768;2024-01-06T06:54:15;98364.72;;;2.32;100.00
46876;BME280;32866;50.160;14.768;2024-01-06T06:56:43;98399.88;;;2.59;100.00
46876;BME280;32866;50.160;14.768;2024-01-06T06:59:10;98393.63;;;2.66;100.00
46876;BME280;32866;50.160;14.768;2024-01-06T07:01:36;98405.28;;;2.86;100.00
46876;BME280;32866;50.160;14.768;2024-01-06T07:04:02;98410.25;;;2.91;100.00
46876;BME280;32866;50.160;14.768;2024-01-06T07:06:28;98411.44;;;2.90;100.00
46876;BME280;32866;50.160;14.768;2024-01-06T07:08:54;98416.03;;;2.93;100.00
46876;BME280;32866;50.160;14.768;2024-01-06T07:11:20;98422.56;;;2.96;100.00
46876;BME280;32866;50.160;14.768;2024-01-06T07:13:46;98416.72;;;2.97;100.00
46876;BME280;32866;50.160;14.768;2024-01-06T07:16:12;98416.72;;;2.97;100.00
46876;BME280;32866;50.160;14.768;2024-01-06T07:18:37;98418.78;;;2.90;100.00
46876;BME280;32866;50.160;14.768;2024-01-06T07:21:06;98424.63;;;2.88;100.00
46876;BME280;32866;50.160;14.768;2024-01-06T07:23:32;98431.53;;;2.89;100.00
46876;BME280;32866;50.160;14.768;2024-01-06T07:25:58;98436.91;;;2.93;100.00
46876;BME280;32866;50.160;14.768;2024-01-06T07:28:24;98438.03;;;2.95;100.00
46876;BME280;32866;50.160;14.768;2024-01-06T07:30:50;98383.78;;;2.52;100.00
46876;BME280;32866;50.160;14.768;2024-01-06T07:33:16;98412.38;;;2.76;100.00
46876;BME280;32866;50.160;14.768;2024-01-06T07:35:42;98433.03;;;2.94;100.00
46876;BME280;32866;50.160;14.768;2024-01-06T07:38:09;98391.78;;;2.59;100.00
46876;BME280;32866;50.160;14.768;2024-01-06T07:40:36;98402.53;;;2.63;100.00
46876;BME280;32866;50.160;14.768;2024-01-06T07:43:02;98444.25;;;2.92;100.00
46876;BME280;32866;50.160;14.768;2024-01-06T07:45:28;98443.09;;;2.93;100.00
46876;BME280;32866;50.160;14.768;2024-01-06T07:47:54;98422.91;;;2.71;100.00
46876;BME280;32866;50.160;14.768;2024-01-06T07:50:20;98444.63;;;2.94;100.00
46876;BME280;32866;50.160;14.768;2024-01-06T07:52:46;98395.97;;;2.64;100.00
46876;BME280;32866;50.160;14.768;2024-01-06T07:55:12;98409.59;;;2.84;100.00
46876;BME280;32866;50.160;14.768;2024-01-06T07:57:38;98442.72;;;3.19;100.00
46876;BME280;32866;50.160;14.768;2024-01-06T08:00:05;98407.44;;;2.99;100.00
46876;BME280;32866;50.160;14.768;2024-01-06T08:02:31;98453.25;;;3.37;100.00
46876;BME280;32866;50.160;14.768;2024-01-06T08:04:57;98391.91;;;3.03;100.00
46876;BME280;32866;50.160;14.768;2024-01-06T08:07:24;98456.28;;;3.42;100.00
46876;BME280;32866;50.160;14.768;2024-01-06T08:09:50;98458.59;;;3.44;100.00
46876;BME280;32866;50.160;14.768;2024-01-06T08:12:16;98390.75;;;3.04;100.00
46876;BME280;32866;50.160;14.768;2024-01-06T08:14:42;98467.75;;;3.50;100.00
46876;BME280;32866;50.160;14.768;2024-01-06T08:17:08;98442.59;;;3.26;100.00
46876;BME280;32866;50.160;14.768;2024-01-06T08:19:34;98444.31;;;3.16;100.00
46876;BME280;32866;50.160;14.768;2024-01-06T08:22:01;98431.06;;;3.22;100.00
46876;BME280;32866;50.160;14.768;2024-01-06T08:24:27;98463.41;;;3.32;100.00
46876;BME280;32866;50.160;14.768;2024-01-06T08:26:53;98477.75;;;3.29;100.00
46876;BME280;32866;50.160;14.768;2024-01-06T08:29:19;98467.19;;;3.39;100.00
46876;BME280;32866;50.160;14.768;2024-01-06T08:31:45;98452.72;;;3.22;100.00
46876;BME280;32866;50.160;14.768;2024-01-06T08:34:11;98447.28;;;3.22;100.00
46876;BME280;32866;50.160;14.768;2024-01-06T08:36:37;98431.34;;;3.04;100.00
46876;BME280;32866;50.160;14.768;2024-01-06T08:39:04;98446.84;;;3.27;100.00
46876;BME280;32866;50.160;14.768;2024-01-06T08:41:30;98501.03;;;3.50;100.00
46876;BME280;32866;50.160;14.768;2024-01-06T08:43:56;98439.56;;;3.24;100.00
46876;BME280;32866;50.160;14.768;2024-01-06T08:46:22;98438.06;;;3.19;100.00
46876;BME280;32866;50.160;14.768;2024-01-06T08:48:48;98480.00;;;3.34;100.00
46876;BME280;32866;50.160;14.768;2024-01-06T08:51:14;98498.44;;;3.67;100.00
46876;BME280;32866;50.160;14.768;2024-01-06T08:53:40;98449.38;;;3.38;100.00
46876;BME280;32866;50.160;14.768;2024-01-06T08:56:06;98458.69;;;3.37;100.00
46876;BME280;32866;50.160;14.768;2024-01-06T08:58:32;98437.47;;;3.31;100.00
46876;BME280;32866;50.160;14.768;2024-01-06T09:00:58;98497.69;;;3.66;100.00
46876;BME280;32866;50.160;14.768;2024-01-06T09:03:25;98457.22;;;3.32;100.00
46876;BME280;32866;50.160;14.768;2024-01-06T09:05:52;98507.47;;;3.84;100.00
46876;BME280;32866;50.160;14.768;2024-01-06T09:08:18;98509.72;;;3.89;100.00
46876;BME280;32866;50.160;14.768;2024-01-06T09:10:44;98511.22;;;3.90;100.00
46876;BME280;32866;50.160;14.768;2024-01-06T09:13:10;98516.22;;;3.92;100.00
46876;BME280;32866;50.160;14.768;2024-01-06T09:15:36;98495.03;;;3.86;100.00
46876;BME280;32866;50.160;14.768;2024-01-06T09:18:02;98459.41;;;3.64;100.00
46876;BME280;32866;50.160;14.768;2024-01-06T09:20:28;98484.44;;;3.72;100.00
46876;BME280;32866;50.160;14.768;2024-01-06T09:22:54;98462.75;;;3.72;100.00
46876;BME280;32866;50.160;14.768;2024-01-06T09:25:20;98501.66;;;4.05;100.00
46876;BME280;32866;50.160;14.768;2024-01-06T09:27:50;98511.66;;;4.08;100.00
46876;BME280;32866;50.160;14.768;2024-01-06T09:30:17;98505.94;;;4.26;100.00
46876;BME280;32866;50.160;14.768;2024-01-06T09:32:43;98512.19;;;4.43;100.00
46876;BME280;32866;50.160;14.768;2024-01-06T09:35:10;98512.91;;;4.48;100.00
46876;BME280;32866;50.160;14.768;2024-01-06T09:37:36;98514.72;;;4.54;100.00
46876;BME280;32866;50.160;14.768;2024-01-06T09:40:01;98516.16;;;4.59;100.00
46876;BME280;32866;50.160;14.768;2024-01-06T09:42:27;98519.91;;;4.65;100.00
46876;BME280;32866;50.160;14.768;2024-01-06T09:44:53;98518.09;;;4.78;100.00
46876;BME280;32866;50.160;14.768;2024-01-06T09:47:19;98534.09;;;4.93;100.00
46876;BME280;32866;50.160;14.768;2024-01-06T09:49:50;98531.06;;;5.07;100.00
46876;BME280;32866;50.160;14.768;2024-01-06T09:52:18;98533.63;;;5.14;100.00
46876;BME280;32866;50.160;14.768;2024-01-06T09:54:47;98535.41;;;5.21;100.00
46876;BME280;32866;50.160;14.768;2024-01-06T09:57:16;98532.47;;;5.32;100.00
46876;BME280;32866;50.160;14.768;2024-01-06T09:59:43;98534.66;;;5.20;100.00
46876;BME280;32866;50.160;14.768;2024-01-06T10:02:11;98527.44;;;5.14;100.00
46876;BME280;32866;50.160;14.768;2024-01-06T10:04:39;98521.06;;;5.20;100.00
46876;BME280;32866;50.160;14.768;2024-01-06T10:07:05;98529.94;;;5.25;100.00
46876;BME280;32866;50.160;14.768;2024-01-06T10:09:31;98531.94;;;5.20;100.00
46876;BME280;32866;50.160;14.768;2024-01-06T10:11:57;98535.88;;;5.19;100.00
46876;BME280;32866;50.160;14.768;2024-01-06T10:14:25;98531.41;;;5.09;100.00
46876;BME280;32866;50.160;14.768;2024-01-06T10:16:52;98525.38;;;5.01;100.00
46876;BME280;32866;50.160;14.768;2024-01-06T10:19:18;98518.41;;;5.00;100.00
46876;BME280;32866;50.160;14.768;2024-01-06T10:21:43;98521.03;;;5.04;100.00
46876;BME280;32866;50.160;14.768;2024-01-06T10:24:10;98519.88;;;5.05;100.00
46876;BME280;32866;50.160;14.768;2024-01-06T10:26:35;98524.59;;;5.01;100.00
46876;BME280;32866;50.160;14.768;2024-01-06T10:29:01;98519.16;;;5.01;100.00
46876;BME280;32866;50.160;14.768;2024-01-06T10:31:29;98524.25;;;4.99;100.00
46876;BME280;32866;50.160;14.768;2024-01-06T10:33:54;98531.91;;;5.04;100.00
46876;BME280;32866;50.160;14.768;2024-01-06T10:36:21;98527.69;;;5.03;100.00
46876;BME280;32866;50.160;14.768;2024-01-06T10:38:48;98520.53;;;5.09;100.00
46876;BME280;32866;50.160;14.768;2024-01-06T10:41:14;98507.47;;;5.04;100.00
46876;BME280;32866;50.160;14.768;2024-01-06T10:43:40;98515.34;;;4.98;100.00
46876;BME280;32866;50.160;14.768;2024-01-06T10:46:09;98517.41;;;5.11;100.00
46876;BME280;32866;50.160;14.768;2024-01-06T10:48:38;98510.13;;;5.24;100.00
46876;BME280;32866;50.160;14.768;2024-01-06T10:51:08;98512.84;;;5.24;100.00
46876;BME280;32866;50.160;14.768;2024-01-06T10:53:34;98515.13;;;5.26;100.00
46876;BME280;32866;50.160;14.768;2024-01-06T10:56:07;98507.91;;;5.19;100.00
46876;BME280;32866;50.160;14.768;2024-01-06T10:58:34;98502.31;;;5.10;100.00
46876;BME280;32866;50.160;14.768;2024-01-06T11:01:03;98509.34;;;5.07;100.00
46876;BME280;32866;50.160;14.768;2024-01-06T11:03:29;98510.53;;;5.06;100.00
46876;BME280;32866;50.160;14.768;2024-01-06T11:05:55;98516.81;;;5.03;100.00
46876;BME280;32866;50.160;14.768;2024-01-06T11:08:21;98512.38;;;4.93;100.00
46876;BME280;32866;50.160;14.768;2024-01-06T11:10:47;98511.19;;;4.94;100.00
46876;BME280;32866;50.160;14.768;2024-01-06T11:13:21;98509.22;;;4.94;100.00
46876;BME280;32866;50.160;14.768;2024-01-06T11:15:48;98503.44;;;4.92;100.00
46876;BME280;32866;50.160;14.768;2024-01-06T11:23:39;98508.06;;;4.75;100.00
46876;BME280;32866;50.160;14.768;2024-01-06T11:26:06;98508.91;;;4.72;100.00
46876;BME280;32866;50.160;14.768;2024-01-06T11:28:45;98504.31;;;4.69;100.00
46876;BME280;32866;50.160;14.768;2024-01-06T11:31:11;98498.84;;;4.73;100.00
46876;BME280;32866;50.160;14.768;2024-01-06T11:33:43;98496.16;;;4.69;100.00
46876;BME280;32866;50.160;14.768;2024-01-06T11:36:09;98506.59;;;4.71;100.00
46876;BME280;32866;50.160;14.768;2024-01-06T11:38:39;98497.91;;;4.79;100.00
46876;BME280;32866;50.160;14.768;2024-01-06T11:41:08;98504.19;;;4.76;100.00
46876;BME280;32866;50.160;14.768;2024-01-06T11:43:35;98501.06;;;4.78;100.00
46876;BME280;32866;50.160;14.768;2024-01-06T11:46:03;98506.91;;;4.76;100.00
46876;BME280;32866;50.160;14.768;2024-01-06T11:48:32;98507.09;;;4.86;100.00
46876;BME280;32866;50.160;14.768;2024-01-06T11:50:58;98509.13;;;4.81;100.00
46876;BME280;32866;50.160;14.768;2024-01-06T11:53:26;98501.72;;;4.82;100.00
46876;BME280;32866;50.160;14.768;2024-01-06T11:55:52;98500.13;;;4.85;100.00
46876;BME280;32866;50.160;14.768;2024-01-06T11:58:17;98491.41;;;4.93;100.00
46876;BME280;32866;50.160;14.768;2024-01-06T12:00:43;98499.97;;;4.92;100.00
46876;BME280;32866;50.160;14.768;2024-01-06T12:03:09;98500.13;;;4.85;100.00
46876;BME280;32866;50.160;14.768;2024-01-06T12:05:35;98506.41;;;4.81;100.00
46876;BME280;32866;50.160;14.768;2024-01-06T12:08:02;98502.31;;;4.73;100.00
46876;BME280;32866;50.160;14.768;2024-01-06T12:10:30;98499.59;;;4.73;100.00
46876;BME280;32866;50.160;14.768;2024-01-06T12:12:57;98493.03;;;4.71;100.00
46876;BME280;32866;50.160;14.768;2024-01-06T12:15:24;98491.09;;;4.71;100.00
46876;BME280;32866;50.160;14.768;2024-01-06T12:17:50;98494.25;;;4.70;100.00
46876;BME280;32866;50.160;14.768;2024-01-06T12:20:15;98492.84;;;4.61;100.00
46876;BME280;32866;50.160;14.768;2024-01-06T12:22:41;98500.56;;;4.63;100.00
46876;BME280;32866;50.160;14.768;2024-01-06T12:25:08;98495.28;;;4.56;100.00
46876;BME280;32866;50.160;14.768;2024-01-06T12:27:34;98504.41;;;4.45;100.00
46876;BME280;32866;50.160;14.768;2024-01-06T12:30:00;98500.25;;;4.41;100.00
46876;BME280;32866;50.160;14.768;2024-01-06T12:32:26;98499.47;;;4.40;100.00
46876;BME280;32866;50.160;14.768;2024-01-06T12:34:52;98504.81;;;4.44;100.00
46876;BME280;32866;50.160;14.768;2024-01-06T12:37:18;98501.75;;;4.42;100.00
46876;BME280;32866;50.160;14.768;2024-01-06T12:39:44;98500.28;;;4.37;100.00
46876;BME280;32866;50.160;14.768;2024-01-06T12:42:14;98500.44;;;4.30;100.00
46876;BME280;32866;50.160;14.768;2024-01-06T12:44:40;98504.28;;;4.33;100.00
46876;BME280;32866;50.160;14.768;2024-01-06T12:47:08;98507.25;;;4.38;100.00
46876;BME280;32866;50.160;14.768;2024-01-06T12:49:33;98506.44;;;4.41;100.00
46876;BME280;32866;50.160;14.768;2024-01-06T12:51:59;98493.34;;;4.36;100.00